Palchem 1 — 9HA2097 — position and weather

sailwx.info

Track history (hours):
 
Tides and Currents Weather Stations Pressure Air Temp Water Temp Dewpoint Dewpoint Depression Visibility Wind Speed Wind Dir Waves Ship Positions

Palchem 1

Last reported at 2016-Apr-29 03:32 UTC. Time now 2016-Apr-29 04:03 UTC.
Position N 54°41' E 020°13'.

Length 143 m; draft 6 m.

Type: Ship. MMSI: 249955000.

Date/timePositionNaut miles runAvg speedWind from/ knotsBaromVisibWave heightAir tempDewpointWater temp
2016-Apr-29 03:32N 54°41' E 020°13'0 0.0
2016-Apr-29 00:13N 54°41' E 020°13'11 1.1
2016-Apr-28 14:31N 54°38' E 019°55'4 3.8
2016-Apr-28 13:26N 54°39' E 019°49'0 0.0
2016-Apr-28 12:33N 54°39' E 019°49'0 0.0
2016-Apr-28 11:32N 54°39' E 019°49'0 0.0
2016-Apr-28 10:33N 54°39' E 019°49'0 0.0
2016-Apr-28 09:30N 54°39' E 019°49'0 0.0
2016-Apr-28 08:30N 54°39' E 019°49'2 1.9
2016-Apr-28 07:34N 54°41' E 019°47'9 9.0
2016-Apr-28 06:34N 54°46' E 019°34'9 9.4
2016-Apr-28 05:33N 54°50' E 019°19'9 9.0
2016-Apr-28 04:33N 54°54' E 019°06'1212.3
2016-Apr-28 03:33N 55°00' E 018°47'1212.0
2016-Apr-28 02:33N 55°04' E 018°27'1212.2
2016-Apr-28 01:33N 55°04' E 018°05'8611.9
2016-Apr-27 18:20N 54°50' E 015°37'1113.1
2016-Apr-27 17:31N 54°46' E 015°20'1212.6
2016-Apr-27 16:33N 54°42' E 014°60'1412.4
2016-Apr-27 15:24N 54°37' E 014°37'1112.4
2016-Apr-27 14:30N 54°37' E 014°17'1212.7
2016-Apr-27 13:31N 54°41' E 013°57'4711.8
2016-Apr-27 09:30N 54°41' E 012°35'1512.3
2016-Apr-27 08:16N 54°31' E 012°16'811.3
2016-Apr-27 07:33N 54°25' E 012°08'1211.9
2016-Apr-27 06:33N 54°25' E 011°47'1110.6
2016-Apr-27 05:33N 54°29' E 011°31'9 9.4
2016-Apr-27 04:33N 54°33' E 011°16'10 9.9
2016-Apr-27 03:33N 54°35' E 010°59'1110.8
2016-Apr-27 02:33N 54°34' E 010°41'1110.9
2016-Apr-27 01:33N 54°30' E 010°23'9 8.6
2016-Apr-27 00:33N 54°24' E 010°12'3 3.3
2016-Apr-26 23:33N 54°22' E 010°08'7 6.7
2016-Apr-26 22:33N 54°20' E 009°57'3 3.1
2016-Apr-26 21:33N 54°22' E 009°52'7 7.1
2016-Apr-26 20:33N 54°18' E 009°42'9 7.4
2016-Apr-26 19:24N 54°11' E 009°32'7 8.2
2016-Apr-26 18:33N 54°09' E 009°21'8 8.1
2016-Apr-26 17:34N 54°01' E 009°18'7 7.1
2016-Apr-26 16:33N 53°55' E 009°11'0 0.0
2016-Apr-26 15:34N 53°55' E 009°11'0 0.0
2016-Apr-26 14:34N 53°55' E 009°11'2 1.8
2016-Apr-26 13:33N 53°54' E 009°09'1 1.4
2016-Apr-26 12:34N 53°53' E 009°07'1 0.6
2016-Apr-26 11:33N 53°53' E 009°06'5 5.2
2016-Apr-26 10:33N 53°51' E 008°58'8 7.6
2016-Apr-26 09:33N 53°51' E 008°45'7 7.0
2016-Apr-26 08:33N 53°57' E 008°38'9 9.0
2016-Apr-26 07:33N 53°59' E 008°23'1110.6
2016-Apr-26 06:33N 53°59' E 008°05'9 8.8
2016-Apr-26 05:34N 53°57' E 007°50'1111.2
2016-Apr-26 04:33N 53°55' E 007°31'1111.2
2016-Apr-26 03:33N 53°53' E 007°13'1111.4
2016-Apr-26 02:33N 53°50' E 006°54'1211.9
2016-Apr-26 01:33N 53°47' E 006°35'1212.2
2016-Apr-26 00:33N 53°44' E 006°15'1212.6
2016-Apr-25 23:33N 53°40' E 005°54'1312.7
2016-Apr-25 22:33N 53°36' E 005°34'1313.1
2016-Apr-25 21:32N 53°32' E 005°13'1412.8
2016-Apr-25 20:29N 53°27' E 004°51'1111.4
2016-Apr-25 19:32N 53°19' E 004°39'1111.2
2016-Apr-25 18:32N 53°10' E 004°29'1111.3
2016-Apr-25 17:34N 52°60' E 004°21'1211.4
2016-Apr-25 16:33N 52°50' E 004°12'1211.3
2016-Apr-25 15:29N 52°40' E 003°59'1010.8
2016-Apr-25 14:32N 52°33' E 003°48'  
2016-Apr-23 08:15N 51°52' E 003°25'0 0.0
2016-Apr-23 07:33N 51°52' E 003°25'0 0.0
2016-Apr-23 06:33N 51°52' E 003°25'0 0.0
2016-Apr-22 19:30N 51°52' E 003°25'0 0.0
2016-Apr-22 18:33N 51°52' E 003°25'0 0.0
2016-Apr-22 17:33N 51°52' E 003°25'0 0.0
2016-Apr-22 16:33N 51°52' E 003°25'0 0.0
2016-Apr-22 00:09N 51°52' E 003°25'0 0.0
2016-Apr-21 22:12N 51°52' E 003°25'0 0.0
2016-Apr-21 21:18N 51°52' E 003°25'0 0.0
2016-Apr-21 20:33N 51°52' E 003°25'0 0.0
2016-Apr-21 19:33N 51°52' E 003°25'0 0.0
2016-Apr-21 18:33N 51°52' E 003°25'0 0.0
2016-Apr-21 17:30N 51°52' E 003°25'0 0.0
2016-Apr-21 16:09N 51°52' E 003°25'0 0.1
2016-Apr-21 15:24N 51°52' E 003°25'0 0.0
2016-Apr-21 14:30N 51°52' E 003°25'0 0.0
2016-Apr-21 13:29N 51°52' E 003°25'0 0.1
2016-Apr-21 12:32N 51°52' E 003°25'0 0.0
2016-Apr-21 11:32N 51°52' E 003°25'0 0.0
2016-Apr-21 10:26N 51°52' E 003°25'0 0.0
2016-Apr-21 09:32N 51°52' E 003°25'0 0.0
2016-Apr-21 06:14N 51°52' E 003°25'0 0.0
2016-Apr-20 20:32N 51°52' E 003°25'0 0.0
2016-Apr-20 19:29N 51°52' E 003°25'0 0.0
2016-Apr-20 18:32N 51°52' E 003°25'0 0.0
2016-Apr-20 17:29N 51°52' E 003°25'0 0.0
2016-Apr-20 14:29N 51°52' E 003°25'0 0.0
2016-Apr-20 01:29N 51°52' E 003°25'0 0.0
2016-Apr-20 00:23N 51°52' E 003°25'0 0.0
2016-Apr-19 21:11N 51°52' E 003°25'  
Track history (hours):
 
Tides and Currents Weather Stations Pressure Air Temp Water Temp Dewpoint Dewpoint Depression Visibility Wind Speed Wind Dir Waves Ship Positions

Palchem 1

Last reported at 2016-Apr-29 03:32 UTC. Time now 2016-Apr-29 04:03 UTC.
Position N 54°41' E 020°13'.

Length 143 m; draft 6 m.

Type: Ship. MMSI: 249955000.

Date/timePositionNaut miles runAvg speedWind from/ knotsBaromVisibWave heightAir tempDewpointWater temp
2016-Apr-29 03:32N 54°41' E 020°13'0 0.0
2016-Apr-29 00:13N 54°41' E 020°13'11 1.1
2016-Apr-28 14:31N 54°38' E 019°55'4 3.8
2016-Apr-28 13:26N 54°39' E 019°49'0 0.0
2016-Apr-28 12:33N 54°39' E 019°49'0 0.0
2016-Apr-28 11:32N 54°39' E 019°49'0 0.0
2016-Apr-28 10:33N 54°39' E 019°49'0 0.0
2016-Apr-28 09:30N 54°39' E 019°49'0 0.0
2016-Apr-28 08:30N 54°39' E 019°49'2 1.9
2016-Apr-28 07:34N 54°41' E 019°47'9 9.0
2016-Apr-28 06:34N 54°46' E 019°34'9 9.4
2016-Apr-28 05:33N 54°50' E 019°19'9 9.0
2016-Apr-28 04:33N 54°54' E 019°06'1212.3
2016-Apr-28 03:33N 55°00' E 018°47'1212.0
2016-Apr-28 02:33N 55°04' E 018°27'1212.2
2016-Apr-28 01:33N 55°04' E 018°05'8611.9
2016-Apr-27 18:20N 54°50' E 015°37'1113.1
2016-Apr-27 17:31N 54°46' E 015°20'1212.6
2016-Apr-27 16:33N 54°42' E 014°60'1412.4
2016-Apr-27 15:24N 54°37' E 014°37'1112.4
2016-Apr-27 14:30N 54°37' E 014°17'1212.7
2016-Apr-27 13:31N 54°41' E 013°57'4711.8
2016-Apr-27 09:30N 54°41' E 012°35'1512.3
2016-Apr-27 08:16N 54°31' E 012°16'811.3
2016-Apr-27 07:33N 54°25' E 012°08'1211.9
2016-Apr-27 06:33N 54°25' E 011°47'1110.6
2016-Apr-27 05:33N 54°29' E 011°31'9 9.4
2016-Apr-27 04:33N 54°33' E 011°16'10 9.9
2016-Apr-27 03:33N 54°35' E 010°59'1110.8
2016-Apr-27 02:33N 54°34' E 010°41'1110.9
2016-Apr-27 01:33N 54°30' E 010°23'9 8.6
2016-Apr-27 00:33N 54°24' E 010°12'3 3.3
2016-Apr-26 23:33N 54°22' E 010°08'7 6.7
2016-Apr-26 22:33N 54°20' E 009°57'3 3.1
2016-Apr-26 21:33N 54°22' E 009°52'7 7.1
2016-Apr-26 20:33N 54°18' E 009°42'9 7.4
2016-Apr-26 19:24N 54°11' E 009°32'7 8.2
2016-Apr-26 18:33N 54°09' E 009°21'8 8.1
2016-Apr-26 17:34N 54°01' E 009°18'7 7.1
2016-Apr-26 16:33N 53°55' E 009°11'0 0.0
2016-Apr-26 15:34N 53°55' E 009°11'0 0.0
2016-Apr-26 14:34N 53°55' E 009°11'2 1.8
2016-Apr-26 13:33N 53°54' E 009°09'1 1.4
2016-Apr-26 12:34N 53°53' E 009°07'1 0.6
2016-Apr-26 11:33N 53°53' E 009°06'5 5.2
2016-Apr-26 10:33N 53°51' E 008°58'8 7.6
2016-Apr-26 09:33N 53°51' E 008°45'7 7.0
2016-Apr-26 08:33N 53°57' E 008°38'9 9.0
2016-Apr-26 07:33N 53°59' E 008°23'1110.6
2016-Apr-26 06:33N 53°59' E 008°05'9 8.8
2016-Apr-26 05:34N 53°57' E 007°50'1111.2
2016-Apr-26 04:33N 53°55' E 007°31'1111.2
2016-Apr-26 03:33N 53°53' E 007°13'1111.4
2016-Apr-26 02:33N 53°50' E 006°54'1211.9
2016-Apr-26 01:33N 53°47' E 006°35'1212.2
2016-Apr-26 00:33N 53°44' E 006°15'1212.6
2016-Apr-25 23:33N 53°40' E 005°54'1312.7
2016-Apr-25 22:33N 53°36' E 005°34'1313.1
2016-Apr-25 21:32N 53°32' E 005°13'1412.8
2016-Apr-25 20:29N 53°27' E 004°51'1111.4
2016-Apr-25 19:32N 53°19' E 004°39'1111.2
2016-Apr-25 18:32N 53°10' E 004°29'1111.3
2016-Apr-25 17:34N 52°60' E 004°21'1211.4
2016-Apr-25 16:33N 52°50' E 004°12'1211.3
2016-Apr-25 15:29N 52°40' E 003°59'1010.8
2016-Apr-25 14:32N 52°33' E 003°48'  
2016-Apr-23 08:15N 51°52' E 003°25'0 0.0
2016-Apr-23 07:33N 51°52' E 003°25'0 0.0
2016-Apr-23 06:33N 51°52' E 003°25'0 0.0
2016-Apr-22 19:30N 51°52' E 003°25'0 0.0
2016-Apr-22 18:33N 51°52' E 003°25'0 0.0
2016-Apr-22 17:33N 51°52' E 003°25'0 0.0
2016-Apr-22 16:33N 51°52' E 003°25'0 0.0
2016-Apr-22 00:09N 51°52' E 003°25'0 0.0
2016-Apr-21 22:12N 51°52' E 003°25'0 0.0
2016-Apr-21 21:18N 51°52' E 003°25'0 0.0
2016-Apr-21 20:33N 51°52' E 003°25'0 0.0
2016-Apr-21 19:33N 51°52' E 003°25'0 0.0
2016-Apr-21 18:33N 51°52' E 003°25'0 0.0
2016-Apr-21 17:30N 51°52' E 003°25'0 0.0
2016-Apr-21 16:09N 51°52' E 003°25'0 0.1
2016-Apr-21 15:24N 51°52' E 003°25'0 0.0
2016-Apr-21 14:30N 51°52' E 003°25'0 0.0
2016-Apr-21 13:29N 51°52' E 003°25'0 0.1
2016-Apr-21 12:32N 51°52' E 003°25'0 0.0
2016-Apr-21 11:32N 51°52' E 003°25'0 0.0
2016-Apr-21 10:26N 51°52' E 003°25'0 0.0
2016-Apr-21 09:32N 51°52' E 003°25'0 0.0
2016-Apr-21 06:14N 51°52' E 003°25'0 0.0
2016-Apr-20 20:32N 51°52' E 003°25'0 0.0
2016-Apr-20 19:29N 51°52' E 003°25'0 0.0
2016-Apr-20 18:32N 51°52' E 003°25'0 0.0
2016-Apr-20 17:29N 51°52' E 003°25'0 0.0
2016-Apr-20 14:29N 51°52' E 003°25'0 0.0
2016-Apr-20 01:29N 51°52' E 003°25'0 0.0
2016-Apr-20 00:23N 51°52' E 003°25'0 0.0
2016-Apr-19 21:11N 51°52' E 003°25'  

Dump ship's entire track history